CARO2: North Fork Red, OK

Data processed at Fri Apr 17 23:32:15 2015 Central Daylight Time


All information presented herein is the property of the government of the United States of America and may be revised or deleted at any time without prior notice.
Dissemination of this information without the expressed written consent of the Public Affairs Office, Tulsa District U.S. Army Corps of Engineers is strictly prohibited.
These data are gathered electronically and, as presented, have not undergone any form of quality control. These data are not guaranteed to be valid or correct.
Go to home page.
Go to station list.
Go to station map.

Upstream stations:

Downstream station: Previous Day
Next Day
Current Day

Display graphics.
Display DCP transmissions.


    
    SHEF ID:       CARO2     North Fork Red, OK
    STATION TYPE:  STREAM GAGE
    Regulation Limits:  Stage =   11.00, Flow =   10316
    
                   PRECIP     STAGE  RIV-FLOW  BAT-LOAD
                   INCHES      FEET       CFS     VOLTS
                     GOES      GOES      GOES      GOES
       (Cen)
    04/17 01:00      0.00      2.75       199     12.57
    04/17 02:00      0.00      2.73       194     12.49
    04/17 03:00      0.05      2.73       194     12.49
    04/17 04:00      0.00      2.71       189     12.49
    04/17 05:00      0.54      2.79       209     12.49
    04/17 06:00      0.05      2.77       204     12.41
    04/17 07:00      0.15      2.77       204     12.41
    04/17 08:00      0.02      2.76       202     12.41
    04/17 09:00      0.00      2.74       197     12.49
    04/17 10:00      0.00      2.73       194     12.73
    04/17 11:00      0.00      2.72       192     13.53
    04/17 12:00      0.01      2.71       189     13.13
    04/17 13:00      0.00      2.70       187     13.44
    04/17 14:00      0.00      2.69       184     13.37
    04/17 15:00      0.00      2.67       179     13.37
    04/17 16:00      0.00      2.67       179     13.29
    04/17 17:00      0.00      2.67       179     13.21
    04/17 18:00      0.27      2.70       187     12.89
    04/17 19:00      0.00      2.70       187     12.81
    04/17 20:00      0.01      2.69       184     12.65
    04/17 21:00      0.00      2.69       184     12.65
    04/17 22:00      0.00      2.70       187     12.57
    04/17 23:00      0.00      2.73       194     12.57
    04/18 00:00      ----      ----      ----      ----